Seeley Lake, Montana
Current Conditions -  °F | °C
As of 3:53 AM on Friday 31 Oct 2014 (Local Time) from KMSO Reporting Station
Haze Haze  
Wind Chill: 32°   Ceiling: Unl
Heat Index: 36°   Visibility: 1.7mi
Dew Point: 36°   Wind: 5mph
Humidity: 100%   Direction: 220°SW
Pressure: 29.92"   Gusts: NA
Location:  47.18°N, 113.49°W
Report Text: KMSO 310953Z AUTO 22004KT 1 3/4SM BR FEW002 02/02 A2992 RMK AO2 SLP140 T00220022
Loading
Personal Weather Stations






























Interactive Weather Map
Tropical Storm Tracking
New forecast layout! Learn more

10-Day Weather Forecast

Advertisements
Track Severe Weather on mobile